createdAt,value
2022-08-22T00:00:18.874Z,23.45
2022-08-22T00:01:55.426Z,23.46
2022-08-22T00:02:53.999Z,24.22
2022-08-22T00:03:07.845Z,23.65
2022-08-22T00:03:08.534Z,24.85
2022-08-22T00:03:35.353Z,23.46
2022-08-22T00:05:13.122Z,23.46
2022-08-22T00:06:51.022Z,23.50
2022-08-22T00:08:27.911Z,23.54
2022-08-22T00:10:01.530Z,23.52
2022-08-22T00:11:50.514Z,23.52
2022-08-22T00:13:28.639Z,23.49
2022-08-22T00:15:03.617Z,23.46
2022-08-22T00:16:39.555Z,23.45
2022-08-22T00:18:13.201Z,23.44
2022-08-22T00:19:49.181Z,23.45
2022-08-22T00:21:27.235Z,23.43
2022-08-22T00:23:03.092Z,23.39
2022-08-22T00:24:39.886Z,23.41
2022-08-22T00:26:18.148Z,23.39
2022-08-22T00:27:55.074Z,23.38
2022-08-22T00:29:30.399Z,23.35
2022-08-22T00:31:09.136Z,23.35
2022-08-22T00:32:43.453Z,23.36
2022-08-22T00:34:16.795Z,23.33
2022-08-22T00:35:50.508Z,23.34
2022-08-22T00:37:26.044Z,23.30
2022-08-22T00:39:06.227Z,23.25
2022-08-22T00:40:49.951Z,23.21
2022-08-22T00:42:42.418Z,23.18
2022-08-22T00:44:31.570Z,23.11
2022-08-22T00:46:18.206Z,23.03
2022-08-22T00:47:54.832Z,23.01
2022-08-22T00:49:41.799Z,23.01
2022-08-22T00:51:30.434Z,23.02
2022-08-22T00:53:19.961Z,23.02
2022-08-22T00:55:01.496Z,23.02
2022-08-22T00:56:45.981Z,23.02
2022-08-22T00:58:45.380Z,23.01
2022-08-22T01:00:18.446Z,22.97
2022-08-22T01:01:52.536Z,22.95
2022-08-22T01:03:41.942Z,22.96
2022-08-22T01:05:23.674Z,22.95
2022-08-22T01:07:01.186Z,22.96
2022-08-22T01:08:53.176Z,22.96
2022-08-22T01:10:31.824Z,22.95
2022-08-22T01:12:19.682Z,22.94
2022-08-22T01:14:00.040Z,22.93
2022-08-22T01:17:09.859Z,22.89
2022-08-22T01:18:56.084Z,22.89
2022-08-22T01:21:00.636Z,22.86
2022-08-22T01:23:07.688Z,22.83
2022-08-22T01:25:21.458Z,22.76
2022-08-22T01:27:14.982Z,22.72
2022-08-22T01:29:09.481Z,22.72
2022-08-22T01:30:50.508Z,22.73
2022-08-22T01:32:31.912Z,22.73
2022-08-22T01:34:21.999Z,22.74
2022-08-22T01:36:02.822Z,22.76
2022-08-22T01:37:52.431Z,22.75
2022-08-22T01:39:39.298Z,22.74
2022-08-22T01:41:22.519Z,22.74
2022-08-22T01:43:05.960Z,22.73
2022-08-22T01:44:45.892Z,22.70
2022-08-22T01:46:28.632Z,22.69
2022-08-22T01:48:06.377Z,22.67
2022-08-22T01:49:44.181Z,22.62
2022-08-22T01:51:24.428Z,22.57
2022-08-22T01:53:01.011Z,22.53
2022-08-22T01:54:41.612Z,22.51
2022-08-22T01:56:15.335Z,22.50
2022-08-22T01:57:52.161Z,22.49
2022-08-22T01:59:42.134Z,22.45
2022-08-22T02:01:19.979Z,22.43
2022-08-22T02:02:59.303Z,22.41
2022-08-22T02:04:36.027Z,22.40
2022-08-22T02:06:14.385Z,22.39
2022-08-22T02:07:54.480Z,22.33
2022-08-22T02:09:33.590Z,22.30
2022-08-22T02:11:07.068Z,22.33
2022-08-22T02:12:43.656Z,22.37
2022-08-22T02:14:23.089Z,22.41
2022-08-22T02:16:03.651Z,22.42
2022-08-22T02:17:47.789Z,22.43
2022-08-22T02:19:26.697Z,22.45
2022-08-22T02:21:03.030Z,22.45
2022-08-22T02:22:37.196Z,22.43
2022-08-22T02:24:23.032Z,22.44
2022-08-22T02:25:58.418Z,22.43
2022-08-22T02:27:34.540Z,22.38
2022-08-22T02:29:08.195Z,22.33
2022-08-22T02:30:47.656Z,22.30
2022-08-22T02:32:23.082Z,22.29
2022-08-22T02:33:57.015Z,22.28
2022-08-22T02:35:32.446Z,22.22
2022-08-22T02:37:08.284Z,22.20
2022-08-22T02:38:42.907Z,22.16
2022-08-22T02:40:22.137Z,22.11
2022-08-22T02:41:57.376Z,22.06
2022-08-22T02:43:34.045Z,22.02
2022-08-22T02:45:12.300Z,21.92
2022-08-22T02:46:46.957Z,21.83
2022-08-22T02:48:27.758Z,21.78
2022-08-22T02:50:12.191Z,21.76
2022-08-22T02:51:48.300Z,21.77
2022-08-22T02:53:21.968Z,21.79
2022-08-22T02:54:56.315Z,21.81
2022-08-22T02:56:32.330Z,21.81
2022-08-22T02:58:07.112Z,21.83
2022-08-22T02:59:39.663Z,21.78
2022-08-22T03:01:22.115Z,21.75
2022-08-22T03:03:02.220Z,21.76
2022-08-22T03:04:54.358Z,21.77
2022-08-22T03:06:32.602Z,21.69
2022-08-22T03:08:08.277Z,21.64
2022-08-22T03:09:44.317Z,21.62
2022-08-22T03:11:19.667Z,21.62
2022-08-22T03:12:57.736Z,21.59
2022-08-22T03:14:32.251Z,21.63
2022-08-22T03:16:09.256Z,21.69
2022-08-22T03:17:47.803Z,21.75
2022-08-22T03:19:22.340Z,21.74
2022-08-22T03:20:58.982Z,21.76
2022-08-22T03:22:33.669Z,21.75
2022-08-22T03:24:11.347Z,21.74
2022-08-22T03:25:48.675Z,21.71
2022-08-22T03:27:32.919Z,21.71
2022-08-22T03:29:09.571Z,21.74
2022-08-22T03:30:43.285Z,21.77
2022-08-22T03:32:16.306Z,21.79
2022-08-22T03:34:14.934Z,21.83
2022-08-22T03:35:55.044Z,21.85
2022-08-22T03:37:32.168Z,21.83
2022-08-22T03:39:16.459Z,21.81
2022-08-22T03:40:56.595Z,21.82
2022-08-22T03:42:39.785Z,21.79
2022-08-22T03:44:29.026Z,21.77
2022-08-22T03:46:18.992Z,21.74
2022-08-22T03:48:07.607Z,21.73
2022-08-22T03:49:58.930Z,21.72
2022-08-22T03:51:43.969Z,21.66
2022-08-22T03:53:22.076Z,21.64
2022-08-22T03:55:03.520Z,21.62
2022-08-22T03:56:57.398Z,21.65
2022-08-22T03:58:40.209Z,21.65
2022-08-22T04:00:19.406Z,21.69
2022-08-22T04:02:42.576Z,21.70
2022-08-22T04:04:16.107Z,21.75
2022-08-22T04:06:11.449Z,21.76
2022-08-22T04:08:00.038Z,21.76
2022-08-22T04:09:55.600Z,21.70
2022-08-22T04:11:59.549Z,21.68
2022-08-22T04:13:58.173Z,21.68
2022-08-22T04:15:45.244Z,21.66
2022-08-22T04:17:30.462Z,21.61
2022-08-22T04:19:11.091Z,21.59
2022-08-22T04:20:56.680Z,21.55
2022-08-22T04:22:39.432Z,21.48
2022-08-22T04:24:22.246Z,21.32
2022-08-22T04:25:57.311Z,21.22
2022-08-22T04:27:32.699Z,21.12
2022-08-22T04:29:07.591Z,21.04
2022-08-22T04:30:43.345Z,21.01
2022-08-22T04:32:17.779Z,20.95
2022-08-22T04:33:54.072Z,20.98
2022-08-22T04:35:28.881Z,21.00
2022-08-22T04:37:04.241Z,21.07
2022-08-22T04:38:39.836Z,21.17
2022-08-22T04:40:15.360Z,21.30
2022-08-22T04:41:48.832Z,21.36
2022-08-22T04:43:24.429Z,21.43
2022-08-22T04:45:00.911Z,21.43
2022-08-22T04:46:37.006Z,21.43
2022-08-22T04:48:13.007Z,21.42
2022-08-22T04:49:49.218Z,21.43
2022-08-22T04:51:23.154Z,21.42
2022-08-22T04:53:28.004Z,21.43
2022-08-22T04:55:10.847Z,21.43
2022-08-22T04:57:01.398Z,21.46
2022-08-22T04:58:39.422Z,21.41
2022-08-22T05:00:11.857Z,21.41
2022-08-22T05:01:46.763Z,21.42
2022-08-22T05:03:21.304Z,21.39
2022-08-22T05:04:59.048Z,21.36
2022-08-22T05:06:32.150Z,21.36
2022-08-22T05:08:05.781Z,21.33
2022-08-22T05:09:43.115Z,21.27
2022-08-22T05:11:15.213Z,21.20
2022-08-22T05:12:49.579Z,21.11
2022-08-22T05:14:25.642Z,21.02
2022-08-22T05:15:59.364Z,20.90
2022-08-22T05:17:32.107Z,20.85
2022-08-22T05:19:07.214Z,20.81
2022-08-22T05:20:41.423Z,20.80
2022-08-22T05:22:14.705Z,20.79
2022-08-22T05:23:49.728Z,20.73
2022-08-22T05:25:24.683Z,20.64
2022-08-22T05:26:57.623Z,20.58
2022-08-22T05:28:32.147Z,20.53
2022-08-22T05:30:05.651Z,20.54
2022-08-22T05:31:40.312Z,20.53
2022-08-22T05:33:14.979Z,20.66
2022-08-22T05:34:47.802Z,20.89
2022-08-22T05:36:25.441Z,20.97
2022-08-22T05:37:57.234Z,20.93
2022-08-22T05:39:29.946Z,20.87
2022-08-22T05:41:04.987Z,20.87
2022-08-22T05:42:37.450Z,20.90
2022-08-22T05:44:17.401Z,20.85
2022-08-22T05:45:49.183Z,20.69
2022-08-22T05:47:23.115Z,20.65
2022-08-22T05:48:56.783Z,20.59
2022-08-22T05:50:34.513Z,20.56
2022-08-22T05:52:10.975Z,20.58
2022-08-22T05:53:45.213Z,20.60
2022-08-22T05:55:22.184Z,20.66
2022-08-22T05:57:00.030Z,20.71
2022-08-22T05:58:43.808Z,20.79
2022-08-22T06:00:19.116Z,20.90
2022-08-22T06:01:59.398Z,21.01
2022-08-22T06:03:34.014Z,21.11
2022-08-22T06:05:11.742Z,21.22
2022-08-22T06:06:46.832Z,21.32
2022-08-22T06:08:21.421Z,21.43
2022-08-22T06:10:03.147Z,21.52
2022-08-22T06:11:38.548Z,21.58
2022-08-22T06:13:13.704Z,21.51
2022-08-22T06:14:47.448Z,21.52
2022-08-22T06:16:23.476Z,21.44
2022-08-22T06:17:57.715Z,21.39
2022-08-22T06:19:30.015Z,21.33
2022-08-22T06:21:03.426Z,21.24
2022-08-22T06:22:37.028Z,21.12
2022-08-22T06:24:16.452Z,21.08
2022-08-22T06:25:50.342Z,21.20
2022-08-22T06:27:23.882Z,21.37
2022-08-22T06:28:58.163Z,21.52
2022-08-22T06:30:30.422Z,21.64
2022-08-22T06:32:03.513Z,21.73
2022-08-22T06:33:38.472Z,21.80
2022-08-22T06:35:13.446Z,21.89
2022-08-22T06:36:47.553Z,21.96
2022-08-22T06:38:20.233Z,22.07
2022-08-22T06:39:53.904Z,22.20
2022-08-22T06:41:27.301Z,22.30
2022-08-22T06:42:59.007Z,22.44
2022-08-22T06:44:32.545Z,22.70
2022-08-22T06:46:05.095Z,23.02
2022-08-22T06:47:39.203Z,23.16
2022-08-22T06:49:11.656Z,23.13
2022-08-22T06:50:44.569Z,23.11
2022-08-22T06:52:18.355Z,23.03
2022-08-22T06:53:53.664Z,23.02
2022-08-22T06:55:27.816Z,23.03
2022-08-22T06:56:59.780Z,23.04
2022-08-22T06:58:34.242Z,23.07
2022-08-22T07:00:08.283Z,23.12
2022-08-22T07:01:43.403Z,23.14
2022-08-22T07:03:18.266Z,23.13
2022-08-22T07:04:51.250Z,23.08
2022-08-22T07:06:28.436Z,23.05
2022-08-22T07:08:04.963Z,23.14
2022-08-22T07:09:38.342Z,23.26
2022-08-22T07:11:15.567Z,23.47
2022-08-22T07:12:48.227Z,23.60
2022-08-22T07:14:26.306Z,23.77
2022-08-22T07:15:59.954Z,23.93
2022-08-22T07:17:32.703Z,24.09
2022-08-22T07:19:04.392Z,24.23
2022-08-22T07:20:38.108Z,24.40
2022-08-22T07:22:11.509Z,24.49
2022-08-22T07:23:48.086Z,24.62
2022-08-22T07:25:19.730Z,24.70
2022-08-22T07:26:59.545Z,24.75
2022-08-22T07:28:50.846Z,24.73
2022-08-22T07:30:27.974Z,24.66
2022-08-22T07:32:06.189Z,24.58
2022-08-22T07:33:41.168Z,24.55
2022-08-22T07:35:15.759Z,24.51
2022-08-22T07:36:49.996Z,24.55
2022-08-22T07:38:23.900Z,24.57
2022-08-22T07:40:00.959Z,24.58
2022-08-22T07:41:38.827Z,24.58
2022-08-22T07:43:19.877Z,24.61
2022-08-22T07:45:00.651Z,24.52
2022-08-22T07:46:35.544Z,24.52
2022-08-22T07:48:26.070Z,24.63
2022-08-22T07:49:59.860Z,24.69
2022-08-22T07:51:35.142Z,24.77
2022-08-22T07:53:13.612Z,24.81
2022-08-22T07:54:51.889Z,24.85
2022-08-22T07:56:25.481Z,24.87
2022-08-22T07:58:00.591Z,24.89
2022-08-22T07:59:35.101Z,24.97
2022-08-22T08:01:08.403Z,25.06
2022-08-22T08:02:44.425Z,25.15
2022-08-22T08:04:18.947Z,25.27
2022-08-22T08:05:50.709Z,25.40
2022-08-22T08:07:24.336Z,25.53
2022-08-22T08:08:57.045Z,25.59
2022-08-22T08:10:31.340Z,25.61
2022-08-22T08:12:05.279Z,25.57
2022-08-22T08:13:39.009Z,25.69
2022-08-22T08:15:15.622Z,25.78
2022-08-22T08:16:51.394Z,25.89
2022-08-22T08:18:25.897Z,25.97
2022-08-22T08:19:58.888Z,26.02
2022-08-22T08:21:33.448Z,26.06
2022-08-22T08:23:06.794Z,26.13
2022-08-22T08:24:42.490Z,26.26
2022-08-22T08:26:20.972Z,26.48
2022-08-22T08:28:11.277Z,26.74
2022-08-22T08:29:48.163Z,27.01
2022-08-22T08:31:25.067Z,27.15
2022-08-22T08:33:24.780Z,27.14
2022-08-22T08:34:52.140Z,27.20
2022-08-22T08:36:26.499Z,27.35
2022-08-22T08:38:01.915Z,27.49
2022-08-22T08:39:35.800Z,27.62
2022-08-22T08:41:22.643Z,27.72
2022-08-22T08:43:27.066Z,27.82
2022-08-22T08:45:17.325Z,27.77
2022-08-22T08:47:05.228Z,27.75
2022-08-22T08:48:51.773Z,27.72
2022-08-22T08:50:29.117Z,27.68
2022-08-22T08:52:15.002Z,27.61
2022-08-22T08:54:04.199Z,27.66
2022-08-22T08:55:41.433Z,27.69
2022-08-22T08:57:18.787Z,27.79
2022-08-22T08:59:00.225Z,27.89
2022-08-22T09:00:48.971Z,27.90
2022-08-22T09:02:35.081Z,27.93
2022-08-22T09:04:24.084Z,27.88
2022-08-22T09:06:07.120Z,27.70
2022-08-22T09:07:45.596Z,27.65
2022-08-22T09:09:25.952Z,27.48
2022-08-22T09:11:09.992Z,27.45
2022-08-22T09:12:59.790Z,27.56
2022-08-22T09:14:56.660Z,27.76
2022-08-22T09:16:46.278Z,27.94
2022-08-22T09:18:33.952Z,28.14
2022-08-22T09:20:26.794Z,28.14
2022-08-22T09:22:14.642Z,28.25
2022-08-22T09:24:01.013Z,28.37
2022-08-22T09:25:38.403Z,28.48
2022-08-22T09:27:14.862Z,28.58
2022-08-22T09:28:56.129Z,28.72
2022-08-22T09:30:48.757Z,28.77
2022-08-22T09:32:33.734Z,28.58
2022-08-22T09:34:10.406Z,28.39
2022-08-22T09:35:49.462Z,28.51
2022-08-22T09:37:31.061Z,28.60
2022-08-22T09:41:03.457Z,28.91
2022-08-22T09:42:40.771Z,28.92
2022-08-22T09:44:19.370Z,28.85
2022-08-22T09:45:58.335Z,28.74
2022-08-22T09:47:35.070Z,28.68
2022-08-22T09:49:16.343Z,28.64
2022-08-22T09:50:53.345Z,28.64
2022-08-22T09:52:43.390Z,28.72
2022-08-22T09:54:31.056Z,28.78
2022-08-22T09:56:15.087Z,28.85
2022-08-22T09:57:50.457Z,28.95
2022-08-22T09:59:26.659Z,29.00
2022-08-22T10:01:01.738Z,29.05
2022-08-22T10:02:36.676Z,29.17
2022-08-22T10:04:30.993Z,29.24
2022-08-22T10:06:05.643Z,29.31
2022-08-22T10:08:07.668Z,29.37
2022-08-22T10:09:53.372Z,29.49
2022-08-22T10:11:28.724Z,29.55
2022-08-22T10:13:10.257Z,29.53
2022-08-22T10:14:50.648Z,29.45
2022-08-22T10:16:27.127Z,29.44
2022-08-22T10:18:05.588Z,29.46
2022-08-22T10:19:41.754Z,29.54
2022-08-22T10:21:14.333Z,29.51
2022-08-22T10:22:57.375Z,29.44
2022-08-22T10:24:43.852Z,29.14
2022-08-22T10:26:26.849Z,29.24
2022-08-22T10:28:10.442Z,29.01
2022-08-22T10:29:51.731Z,29.15
2022-08-22T10:31:27.960Z,29.27
2022-08-22T10:33:02.500Z,29.38
2022-08-22T10:34:36.730Z,29.47
2022-08-22T10:36:12.951Z,29.60
2022-08-22T10:37:49.325Z,29.66
2022-08-22T10:39:23.419Z,29.72
2022-08-22T10:40:59.175Z,29.69
2022-08-22T10:42:35.127Z,29.68
2022-08-22T10:44:15.058Z,29.61
2022-08-22T10:45:48.316Z,29.48
2022-08-22T10:47:22.294Z,29.48
2022-08-22T10:48:57.143Z,29.56
2022-08-22T10:50:32.577Z,29.44
2022-08-22T10:52:15.833Z,29.35
2022-08-22T10:54:06.320Z,29.37
2022-08-22T10:55:39.976Z,29.33
2022-08-22T10:57:20.824Z,29.43
2022-08-22T10:58:56.088Z,29.39
2022-08-22T11:00:35.930Z,29.35
2022-08-22T11:02:19.438Z,29.39
2022-08-22T11:03:55.512Z,29.54
2022-08-22T11:05:32.556Z,29.65
2022-08-22T11:07:12.746Z,29.79
2022-08-22T11:08:54.440Z,29.96
2022-08-22T11:10:30.267Z,30.04
2022-08-22T11:12:04.649Z,30.13
2022-08-22T11:13:42.354Z,30.10
2022-08-22T11:15:34.420Z,29.97
2022-08-22T11:17:29.098Z,29.95
2022-08-22T11:19:14.934Z,30.02
2022-08-22T11:20:54.832Z,30.10
2022-08-22T11:22:34.062Z,30.20
2022-08-22T11:24:17.193Z,30.29
2022-08-22T11:26:08.409Z,30.38
2022-08-22T11:27:45.195Z,30.41
2022-08-22T11:29:37.630Z,30.25
2022-08-22T11:31:19.767Z,30.14
2022-08-22T11:33:09.978Z,30.20
2022-08-22T11:34:53.795Z,30.32
2022-08-22T11:36:30.906Z,30.40
2022-08-22T11:38:11.116Z,30.47
2022-08-22T11:39:45.284Z,30.51
2022-08-22T11:41:23.944Z,30.61
2022-08-22T11:42:59.252Z,30.66
2022-08-22T11:44:50.421Z,30.70
2022-08-22T11:46:25.521Z,30.49
2022-08-22T11:48:00.469Z,30.49
2022-08-22T11:49:39.590Z,30.52
2022-08-22T11:51:24.742Z,30.59
2022-08-22T11:53:14.998Z,30.64
2022-08-22T11:54:56.790Z,30.73
2022-08-22T11:56:32.764Z,30.74
2022-08-22T11:58:14.477Z,30.82
2022-08-22T11:59:59.895Z,30.94
2022-08-22T12:01:37.339Z,30.93
2022-08-22T12:03:23.211Z,30.92
2022-08-22T12:04:57.784Z,30.90
2022-08-22T12:06:44.351Z,30.87
2022-08-22T12:08:25.925Z,30.85
2022-08-22T12:09:59.359Z,30.83
2022-08-22T12:11:36.704Z,30.82
2022-08-22T12:13:13.127Z,30.75
2022-08-22T12:14:48.931Z,30.70
2022-08-22T12:16:25.945Z,30.55
2022-08-22T12:18:21.141Z,30.36
2022-08-22T12:20:15.084Z,30.43
2022-08-22T12:22:03.637Z,30.19
2022-08-22T12:23:53.856Z,30.01
2022-08-22T12:25:37.172Z,29.85
2022-08-22T12:27:32.479Z,29.88
2022-08-22T12:29:15.450Z,29.93
2022-08-22T12:30:55.419Z,30.00
2022-08-22T12:32:43.939Z,30.20
2022-08-22T12:34:20.853Z,30.41
2022-08-22T12:36:01.096Z,30.61
2022-08-22T12:37:39.742Z,30.81
2022-08-22T12:39:35.522Z,30.94
2022-08-22T12:41:34.804Z,31.02
2022-08-22T12:43:27.526Z,31.20
2022-08-22T12:45:17.647Z,31.40
2022-08-22T12:46:59.125Z,31.54
2022-08-22T12:48:39.939Z,31.65
2022-08-22T12:50:16.729Z,31.76
2022-08-22T12:52:04.358Z,31.84
2022-08-22T12:53:51.536Z,31.94
2022-08-22T12:55:36.523Z,32.04
2022-08-22T12:57:23.896Z,32.17
2022-08-22T12:59:08.770Z,32.30
2022-08-22T13:00:43.901Z,32.51
2022-08-22T13:02:18.768Z,32.65
2022-08-22T13:03:53.406Z,32.74
2022-08-22T13:05:28.504Z,32.81
2022-08-22T13:07:05.137Z,32.98
2022-08-22T13:08:42.661Z,33.13
2022-08-22T13:10:31.049Z,33.27
2022-08-22T13:12:06.025Z,33.42
2022-08-22T13:13:39.333Z,33.43
2022-08-22T13:15:20.453Z,33.54
2022-08-22T13:16:57.001Z,33.75
2022-08-22T13:18:33.503Z,33.93
2022-08-22T13:20:10.924Z,34.04
2022-08-22T13:21:45.130Z,34.09
2022-08-22T13:23:19.225Z,34.12
2022-08-22T13:24:54.949Z,34.18
2022-08-22T13:26:34.014Z,34.16
2022-08-22T13:28:12.323Z,34.14
2022-08-22T13:29:47.834Z,34.21
2022-08-22T13:31:21.639Z,34.28
2022-08-22T13:32:54.770Z,34.30
2022-08-22T13:34:34.793Z,34.21
2022-08-22T13:36:14.054Z,34.21
2022-08-22T13:37:50.048Z,34.29
2022-08-22T13:39:25.616Z,34.31
2022-08-22T13:40:58.246Z,34.36
2022-08-22T13:42:32.372Z,34.30
2022-08-22T13:44:22.202Z,34.33
2022-08-22T13:45:56.209Z,34.41
2022-08-22T13:47:31.554Z,34.50
2022-08-22T13:49:07.071Z,34.59
2022-08-22T13:50:55.072Z,34.55
2022-08-22T13:52:30.149Z,34.59
2022-08-22T13:54:10.932Z,34.72
2022-08-22T13:55:49.222Z,34.75
2022-08-22T13:57:24.656Z,34.72
2022-08-22T13:58:58.286Z,34.64
2022-08-22T14:00:51.446Z,34.60
2022-08-22T14:02:37.373Z,34.41
2022-08-22T14:04:28.403Z,34.28
2022-08-22T14:06:35.505Z,34.26
2022-08-22T14:08:12.486Z,34.23
2022-08-22T14:09:54.254Z,34.34
2022-08-22T14:11:30.981Z,34.39
2022-08-22T14:13:22.449Z,34.39
2022-08-22T14:14:56.806Z,34.35
2022-08-22T14:16:33.679Z,34.21
2022-08-22T14:18:11.473Z,34.19
2022-08-22T14:19:53.023Z,34.25
2022-08-22T14:21:40.501Z,34.28
2022-08-22T14:23:16.080Z,34.24
2022-08-22T14:24:55.780Z,34.21
2022-08-22T14:26:33.182Z,34.27
2022-08-22T14:28:15.670Z,34.36
2022-08-22T14:29:50.818Z,34.42
2022-08-22T14:31:24.586Z,34.46
2022-08-22T14:32:58.948Z,34.49
2022-08-22T14:34:34.185Z,34.43
2022-08-22T14:36:11.516Z,34.31
2022-08-22T14:37:46.035Z,34.23
2022-08-22T14:39:23.197Z,34.21
2022-08-22T14:40:56.379Z,34.19
2022-08-22T14:42:30.689Z,34.14
2022-08-22T14:44:04.919Z,34.19
2022-08-22T14:45:38.983Z,34.36
2022-08-22T14:47:54.344Z,34.55
2022-08-22T14:49:26.885Z,34.72
2022-08-22T14:51:04.112Z,34.39
2022-08-22T14:52:38.643Z,34.13
2022-08-22T14:54:14.013Z,34.19
2022-08-22T14:55:58.320Z,34.55
2022-08-22T14:57:30.063Z,34.77
2022-08-22T14:59:03.063Z,34.85
2022-08-22T15:00:38.354Z,35.01
2022-08-22T15:02:14.760Z,35.16
2022-08-22T15:03:52.559Z,35.37
2022-08-22T15:05:24.483Z,35.35
2022-08-22T15:06:59.137Z,35.48
2022-08-22T15:08:32.878Z,35.64
2022-08-22T15:10:06.443Z,35.85
2022-08-22T15:11:42.169Z,35.74
2022-08-22T15:13:14.201Z,35.52
2022-08-22T15:14:48.942Z,35.73
2022-08-22T15:16:29.333Z,35.70
2022-08-22T15:18:01.945Z,35.61
2022-08-22T15:19:35.407Z,35.55
2022-08-22T15:21:09.923Z,35.50
2022-08-22T15:22:46.015Z,35.47
2022-08-22T15:24:18.631Z,35.52
2022-08-22T15:25:57.506Z,35.60
2022-08-22T15:27:29.990Z,35.54
2022-08-22T15:29:04.737Z,35.09
2022-08-22T15:30:39.062Z,34.87
2022-08-22T15:32:20.063Z,34.80
2022-08-22T15:33:52.164Z,34.72
2022-08-22T15:35:27.956Z,34.65
2022-08-22T15:37:07.787Z,34.64
2022-08-22T15:38:44.419Z,34.52
2022-08-22T15:40:30.686Z,34.41
2022-08-22T15:42:03.275Z,34.33
2022-08-22T15:43:36.074Z,34.11
2022-08-22T15:45:17.589Z,34.04
2022-08-22T15:46:56.752Z,34.06
2022-08-22T15:48:30.925Z,34.04
2022-08-22T15:50:05.696Z,33.97
2022-08-22T15:51:39.824Z,33.79
2022-08-22T15:53:14.498Z,33.63
2022-08-22T15:55:04.802Z,33.52
2022-08-22T15:56:38.969Z,33.22
2022-08-22T15:58:21.889Z,32.99
2022-08-22T15:59:54.933Z,32.87
2022-08-22T16:01:27.011Z,32.82
2022-08-22T16:03:01.410Z,32.69
2022-08-22T16:04:35.746Z,32.43
2022-08-22T16:06:09.672Z,32.16
2022-08-22T16:07:42.629Z,31.94
2022-08-22T16:09:35.041Z,31.72
2022-08-22T16:11:19.312Z,31.52
2022-08-22T16:13:05.750Z,31.58
2022-08-22T16:14:46.128Z,31.65
2022-08-22T16:16:36.345Z,31.64
2022-08-22T16:18:07.964Z,31.59
2022-08-22T16:19:39.842Z,31.61
2022-08-22T16:21:12.303Z,31.62
2022-08-22T16:23:02.691Z,31.50
2022-08-22T16:24:55.462Z,31.16
2022-08-22T16:26:36.857Z,30.90
2022-08-22T16:28:19.078Z,30.95
2022-08-22T16:30:11.396Z,31.01
2022-08-22T16:31:57.342Z,30.95
2022-08-22T16:33:31.183Z,30.90
2022-08-22T16:35:03.157Z,30.73
2022-08-22T16:36:43.763Z,30.79
2022-08-22T16:38:21.943Z,30.73
2022-08-22T16:40:09.266Z,30.82
2022-08-22T16:41:46.823Z,30.82
2022-08-22T16:43:19.583Z,30.76
2022-08-22T16:44:55.357Z,30.83
2022-08-22T16:46:36.358Z,30.69
2022-08-22T16:48:25.480Z,30.65
2022-08-22T16:50:00.672Z,30.78
2022-08-22T16:51:32.469Z,30.91
2022-08-22T16:53:06.668Z,31.00
2022-08-22T16:54:42.518Z,31.11
2022-08-22T16:56:20.550Z,31.16
2022-08-22T16:58:06.144Z,31.21
2022-08-22T16:59:52.498Z,31.19
2022-08-22T17:01:29.651Z,31.24
2022-08-22T17:03:08.321Z,31.25
2022-08-22T17:04:48.566Z,31.27
2022-08-22T17:06:34.430Z,31.26
2022-08-22T17:08:11.436Z,31.22
2022-08-22T17:09:59.965Z,31.24
2022-08-22T17:11:37.843Z,31.25
2022-08-22T17:13:21.585Z,31.29
2022-08-22T17:15:04.060Z,31.24
2022-08-22T17:16:43.635Z,31.30
2022-08-22T17:18:25.515Z,31.32
2022-08-22T17:20:08.148Z,31.37
2022-08-22T17:21:42.048Z,31.40
2022-08-22T17:23:28.655Z,31.36
2022-08-22T17:25:07.625Z,31.33
2022-08-22T17:26:49.700Z,31.27
2022-08-22T17:28:39.592Z,31.19
2022-08-22T17:30:13.522Z,31.03
2022-08-22T17:31:48.467Z,30.95
2022-08-22T17:33:28.614Z,30.89
2022-08-22T17:35:06.992Z,30.73
2022-08-22T17:36:51.329Z,30.64
2022-08-22T17:38:28.646Z,30.59
2022-08-22T17:40:13.579Z,30.58
2022-08-22T17:41:48.734Z,30.44
2022-08-22T17:43:48.581Z,30.31
2022-08-22T17:45:28.123Z,30.22
2022-08-22T17:47:02.076Z,30.23
2022-08-22T17:48:41.932Z,30.29
2022-08-22T17:50:18.844Z,30.33
2022-08-22T17:51:53.757Z,30.31
2022-08-22T17:53:28.384Z,30.33
2022-08-22T17:55:02.071Z,30.31
2022-08-22T17:56:40.332Z,30.26
2022-08-22T17:58:13.522Z,30.26
2022-08-22T18:00:10.859Z,30.19
2022-08-22T18:01:45.353Z,30.19
2022-08-22T18:03:22.158Z,30.20
2022-08-22T18:05:01.937Z,30.17
2022-08-22T18:06:34.465Z,30.04
2022-08-22T18:08:08.324Z,30.00
2022-08-22T18:09:46.351Z,29.92
2022-08-22T18:11:22.500Z,29.85
2022-08-22T18:12:57.727Z,29.75
2022-08-22T18:14:31.451Z,29.64
2022-08-22T18:16:06.054Z,29.59
2022-08-22T18:17:41.341Z,29.59
2022-08-22T18:19:17.334Z,29.49
2022-08-22T18:20:52.778Z,29.42
2022-08-22T18:22:28.075Z,29.44
2022-08-22T18:24:01.261Z,29.47
2022-08-22T18:25:36.438Z,29.45
2022-08-22T18:27:34.454Z,29.36
2022-08-22T18:29:11.470Z,29.31
2022-08-22T18:30:52.903Z,29.29
2022-08-22T18:32:28.397Z,29.27
2022-08-22T18:34:02.926Z,29.25
2022-08-22T18:35:41.329Z,29.24
2022-08-22T18:37:20.037Z,29.10
2022-08-22T18:38:55.645Z,29.01
2022-08-22T18:40:30.914Z,28.97
2022-08-22T18:42:07.898Z,28.96
2022-08-22T18:43:41.497Z,28.92
2022-08-22T18:45:15.562Z,28.86
2022-08-22T18:46:47.600Z,28.82
2022-08-22T18:48:27.707Z,28.81
2022-08-22T18:50:00.951Z,28.83
2022-08-22T18:51:38.438Z,28.86
2022-08-22T18:53:35.536Z,28.89
2022-08-22T18:55:27.864Z,28.84
2022-08-22T18:57:04.012Z,28.80
2022-08-22T18:58:44.059Z,28.83
2022-08-22T19:00:17.841Z,28.82
2022-08-22T19:01:56.794Z,28.76
2022-08-22T19:03:38.018Z,28.77
2022-08-22T19:05:20.422Z,28.78
2022-08-22T19:07:10.044Z,28.76
2022-08-22T19:08:54.367Z,28.69
2022-08-22T19:10:34.311Z,28.58
2022-08-22T19:12:14.637Z,28.50
2022-08-22T19:13:57.049Z,28.50
2022-08-22T19:15:34.325Z,28.44
2022-08-22T19:17:20.696Z,28.40
2022-08-22T19:18:53.157Z,28.31
2022-08-22T19:20:45.116Z,28.25
2022-08-22T19:22:24.775Z,28.20
2022-08-22T19:23:57.718Z,28.18
2022-08-22T19:25:29.432Z,28.12
2022-08-22T19:27:18.788Z,28.04
2022-08-22T19:28:51.428Z,28.01
2022-08-22T19:30:39.306Z,28.01
2022-08-22T19:32:13.256Z,27.97
2022-08-22T19:33:47.577Z,27.96
2022-08-22T19:35:20.438Z,27.90
2022-08-22T19:37:06.836Z,27.88
2022-08-22T19:38:52.583Z,27.89
2022-08-22T19:40:42.744Z,27.82
2022-08-22T19:42:28.012Z,27.79
2022-08-22T19:43:59.564Z,27.82
2022-08-22T19:45:39.182Z,27.77
2022-08-22T19:47:21.666Z,27.71
2022-08-22T19:48:53.244Z,27.74
2022-08-22T19:50:26.674Z,27.71
2022-08-22T19:52:08.059Z,27.70
2022-08-22T19:53:46.290Z,27.74
2022-08-22T19:55:22.090Z,27.72
2022-08-22T19:57:00.762Z,27.71
2022-08-22T19:58:39.141Z,27.70
2022-08-22T20:00:12.832Z,27.69
2022-08-22T20:01:49.117Z,27.68
2022-08-22T20:03:31.102Z,27.65
2022-08-22T20:05:09.764Z,27.62
2022-08-22T20:06:49.995Z,27.64
2022-08-22T20:08:29.208Z,27.64
2022-08-22T20:10:08.839Z,27.61
2022-08-22T20:11:42.769Z,27.61
2022-08-22T20:13:20.042Z,27.65
2022-08-22T20:14:53.427Z,27.66
2022-08-22T20:16:45.693Z,27.65
2022-08-22T20:18:49.425Z,27.68
2022-08-22T20:20:35.346Z,27.65
2022-08-22T20:22:08.320Z,27.62
2022-08-22T20:23:39.905Z,27.61
2022-08-22T20:25:17.109Z,27.58
2022-08-22T20:27:15.146Z,27.51
2022-08-22T20:28:49.750Z,27.41
2022-08-22T20:30:27.372Z,27.34
2022-08-22T20:31:59.279Z,27.25
2022-08-22T20:33:32.375Z,27.20
2022-08-22T20:35:05.565Z,27.17
2022-08-22T20:36:42.373Z,27.20
2022-08-22T20:38:15.126Z,27.20
2022-08-22T20:39:58.776Z,27.21
2022-08-22T20:41:32.352Z,27.22
2022-08-22T20:43:10.721Z,27.23
2022-08-22T20:44:44.654Z,27.26
2022-08-22T20:46:36.335Z,27.31
2022-08-22T20:48:08.683Z,27.36
2022-08-22T20:49:43.360Z,27.36
2022-08-22T20:51:16.374Z,27.35
2022-08-22T20:52:54.347Z,27.36
2022-08-22T20:54:27.044Z,27.39
2022-08-22T20:55:59.377Z,27.40
2022-08-22T20:57:34.468Z,27.43
2022-08-22T20:59:22.586Z,27.43
2022-08-22T21:00:56.091Z,27.40
2022-08-22T21:02:32.501Z,27.37
2022-08-22T21:04:04.406Z,27.34
2022-08-22T21:05:38.606Z,27.30
2022-08-22T21:07:10.149Z,27.29
2022-08-22T21:08:44.429Z,27.29
2022-08-22T21:10:36.136Z,27.26
2022-08-22T21:12:09.338Z,27.26
2022-08-22T21:13:41.001Z,27.23
2022-08-22T21:15:12.816Z,27.17
2022-08-22T21:16:44.336Z,27.10